Leawood, Kansas
Current Conditions -  °F | °C
As of 4:53 AM on Wednesday 22 Oct 2014 (Local Time) from KOJC Reporting Station
Broken Clouds Broken Clouds  
Wind Chill: 55°   Ceiling: 4300
Heat Index: 55°   Visibility: 10mi
Dew Point: 47°   Wind: 12mph
Humidity: 74%   Direction: 140°SE
Pressure: 30.13"   Gusts: NA
Location:  38.92°N, 94.64°W
Report Text: KOJC 220953Z AUTO 14010KT 10SM BKN043 BKN070 13/08 A3013 RMK AO2 SLP198 T01280083
Loading
Personal Weather Stations






























Interactive Weather Map
Tropical Storm Tracking
New forecast layout! Learn more

10-Day Weather Forecast

Advertisements
Track Severe Weather on mobile